Time;durP1;ratioP1;P1;durP2;ratioP2;P2;SDS_P1;SDS_P2;PMS_P1;PMS_P2;Temp;Humidity;BMP_temperature;BMP_pressure;BME280_temperature;BME280_humidity;BME280_pressure;Samples;Min_cycle;Max_cycle;Signal;HPM_P1;HPM_P2
2023/05/24 00:01:33;;;;;;;29.00;8.35;;;9.40;99.90;;;;;;5012058;28;20448;-82
2023/05/24 00:03:59;;;;;;;24.80;6.43;;;9.40;99.90;;;;;;5007502;28;20773;-88
2023/05/24 00:06:26;;;;;;;31.13;8.10;;;9.40;99.90;;;;;;5012191;28;20487;-85
2023/05/24 00:08:52;;;;;;;30.25;7.60;;;9.40;99.90;;;;;;5012342;28;20425;-87
2023/05/24 00:11:19;;;;;;;31.60;8.85;;;9.30;99.90;;;;;;5010748;28;20432;-87
2023/05/24 00:13:44;;;;;;;32.83;8.30;;;9.30;99.90;;;;;;5011234;28;20417;-80
2023/05/24 00:16:10;;;;;;;32.03;7.93;;;9.30;99.90;;;;;;5014265;28;20433;-85
2023/05/24 00:18:39;;;;;;;24.63;6.85;;;9.30;99.90;;;;;;5010175;28;20492;-85
2023/05/24 00:21:08;;;;;;;32.35;6.88;;;9.30;99.90;;;;;;5013734;28;20949;-87
2023/05/24 00:23:35;;;;;;;24.65;6.90;;;9.40;99.90;;;;;;5010929;28;20891;-88
2023/05/24 00:26:02;;;;;;;28.60;7.82;;;9.30;99.90;;;;;;5003681;28;20434;-90
2023/05/24 00:28:28;;;;;;;24.42;7.55;;;9.30;99.90;;;;;;5001203;28;20503;-88
2023/05/24 00:30:54;;;;;;;23.30;6.88;;;9.40;99.90;;;;;;4978397;28;20876;-90
2023/05/24 00:33:22;;;;;;;24.00;6.75;;;9.40;99.90;;;;;;5007560;28;20448;-84
2023/05/24 00:35:57;;;;;;;23.75;6.82;;;9.40;99.90;;;;;;5013196;28;20445;-84
2023/05/24 00:38:24;;;;;;;28.20;7.40;;;9.40;99.90;;;;;;5006433;28;20425;-89
2023/05/24 00:40:49;;;;;;;29.10;6.87;;;9.30;99.90;;;;;;5003614;28;20424;-85
2023/05/24 00:43:15;;;;;;;29.43;7.47;;;9.40;99.90;;;;;;5009601;28;20499;-89
2023/05/24 00:45:41;;;;;;;28.00;7.30;;;9.50;99.90;;;;;;4996587;28;20479;-89
2023/05/24 00:48:08;;;;;;;26.45;6.95;;;9.50;99.90;;;;;;4985023;28;20423;-88
2023/05/24 00:50:35;;;;;;;26.73;7.00;;;9.50;99.90;;;;;;5030860;28;20431;-87
2023/05/24 00:53:02;;;;;;;25.38;7.22;;;9.60;99.90;;;;;;4983161;28;20453;-85
2023/05/24 00:55:28;;;;;;;27.60;7.90;;;9.50;99.90;;;;;;5011594;28;20840;-84
2023/05/24 00:57:57;;;;;;;23.67;7.85;;;9.50;99.90;;;;;;5016994;28;20423;-87
2023/05/24 01:00:24;;;;;;;30.55;7.13;;;9.40;99.90;;;;;;5009769;28;20420;-81
2023/05/24 01:02:50;;;;;;;27.92;8.05;;;9.40;99.90;;;;;;4978689;28;20527;-83
2023/05/24 01:05:19;;;;;;;24.77;5.88;;;9.40;99.90;;;;;;5021250;28;20556;-81
2023/05/24 01:07:53;;;;;;;28.58;6.63;;;9.40;99.90;;;;;;4978220;28;20439;-87
2023/05/24 01:10:42;;;;;;;26.00;6.55;;;9.30;99.90;;;;;;5057086;22;21124;-87
2023/05/24 01:13:30;;;;;;;30.40;8.73;;;9.30;99.90;;;;;;5011622;28;20442;-87
2023/05/24 01:16:14;;;;;;;28.63;6.35;;;9.30;99.90;;;;;;5021530;28;20447;-85
2023/05/24 01:18:45;;;;;;;26.50;6.25;;;9.30;99.90;;;;;;5022939;28;20426;-84
2023/05/24 01:21:11;;;;;;;27.75;7.90;;;9.30;99.90;;;;;;5027071;28;20432;-88
2023/05/24 01:23:52;;;;;;;27.63;7.80;;;9.30;99.90;;;;;;5036348;28;20878;-88
2023/05/24 01:26:33;;;;;;;31.33;8.55;;;9.20;99.90;;;;;;5035068;28;20942;-81
2023/05/24 01:29:01;;;;;;;27.67;6.95;;;9.30;99.90;;;;;;5029844;28;20429;-87
2023/05/24 01:31:27;;;;;;;25.52;6.75;;;9.30;99.90;;;;;;5033703;28;20428;-87
2023/05/24 01:33:52;;;;;;;26.73;7.37;;;9.30;99.90;;;;;;5028383;28;20433;-84
2023/05/24 01:36:18;;;;;;;25.13;7.47;;;9.40;99.90;;;;;;5027212;28;20426;-85
2023/05/24 01:38:45;;;;;;;23.57;7.43;;;9.20;99.90;;;;;;5043409;28;20512;-87
2023/05/24 01:41:16;;;;;;;22.63;6.20;;;9.20;99.90;;;;;;5011481;28;20427;-88
2023/05/24 01:43:51;;;;;;;28.20;6.75;;;9.40;99.90;;;;;;5027509;28;20427;-88
2023/05/24 01:46:16;;;;;;;27.05;6.80;;;9.30;99.90;;;;;;5037668;28;20496;-82
2023/05/24 01:48:45;;;;;;;31.57;8.10;;;9.20;99.90;;;;;;5029233;28;20860;-88
2023/05/24 01:51:17;;;;;;;28.25;7.78;;;9.20;99.90;;;;;;5004632;28;20427;-86
2023/05/24 01:53:46;;;;;;;20.67;6.27;;;9.40;99.90;;;;;;5025955;28;20430;-86
2023/05/24 01:56:14;;;;;;;31.67;7.50;;;9.30;99.90;;;;;;5031477;28;20426;-87
2023/05/24 01:58:42;;;;;;;28.77;6.63;;;9.40;99.90;;;;;;5025284;28;20427;-88
2023/05/24 02:01:08;;;;;;;25.88;6.45;;;9.40;99.90;;;;;;5030238;28;20437;-88
2023/05/24 02:03:37;;;;;;;25.73;6.38;;;9.30;99.90;;;;;;5027536;28;20422;-86
2023/05/24 02:06:03;;;;;;;22.70;7.00;;;9.30;99.90;;;;;;5030434;28;20451;-87
2023/05/24 02:08:28;;;;;;;23.70;6.72;;;9.30;99.90;;;;;;5038172;28;20430;-84
2023/05/24 02:10:54;;;;;;;22.20;6.15;;;9.20;99.90;;;;;;5038084;28;20433;-89
2023/05/24 02:13:20;;;;;;;27.42;7.13;;;9.30;99.90;;;;;;5031189;28;20453;-87
2023/05/24 02:15:46;;;;;;;20.77;6.40;;;9.30;99.90;;;;;;5026946;28;20428;-88
2023/05/24 02:18:12;;;;;;;26.65;7.18;;;9.40;99.90;;;;;;5035447;28;20423;-85
2023/05/24 02:20:39;;;;;;;21.80;6.43;;;9.40;99.90;;;;;;5035015;28;20421;-85
2023/05/24 02:23:05;;;;;;;23.15;7.45;;;9.40;99.90;;;;;;5036826;28;20436;-81
2023/05/24 02:25:31;;;;;;;30.70;6.93;;;9.30;99.90;;;;;;5026022;28;20431;-86
2023/05/24 02:27:58;;;;;;;27.05;6.82;;;9.40;99.90;;;;;;5011015;28;20813;-84
2023/05/24 02:30:24;;;;;;;21.30;4.90;;;9.40;99.90;;;;;;5033874;28;20507;-87
2023/05/24 02:32:49;;;;;;;23.52;6.55;;;9.40;99.90;;;;;;5034723;28;20522;-87
2023/05/24 02:35:15;;;;;;;20.73;6.43;;;9.40;99.90;;;;;;5026444;28;21147;-89
2023/05/24 02:37:41;;;;;;;26.10;5.38;;;9.40;99.90;;;;;;5013737;28;20757;-82
2023/05/24 02:40:07;;;;;;;20.83;6.13;;;9.40;99.90;;;;;;5029083;28;20436;-89
2023/05/24 02:42:33;;;;;;;28.33;6.60;;;9.40;99.90;;;;;;5037829;28;20503;-88
2023/05/24 02:44:59;;;;;;;19.92;5.07;;;9.40;99.90;;;;;;5028067;28;20423;-89
2023/05/24 02:47:25;;;;;;;23.67;6.13;;;9.40;99.90;;;;;;5005952;28;20837;-85
2023/05/24 02:49:52;;;;;;;25.67;7.50;;;9.40;99.90;;;;;;5040263;28;20429;-82
2023/05/24 02:52:20;;;;;;;22.57;6.10;;;9.40;99.90;;;;;;5033030;28;20431;-85
2023/05/24 02:54:46;;;;;;;25.20;6.28;;;9.40;99.90;;;;;;5027570;28;20450;-89
2023/05/24 02:57:12;;;;;;;24.10;4.97;;;9.30;99.90;;;;;;5027767;28;20450;-87
2023/05/24 02:59:38;;;;;;;31.30;7.68;;;9.30;99.90;;;;;;5027300;28;20438;-89
2023/05/24 03:02:03;;;;;;;24.95;6.22;;;9.40;99.90;;;;;;5043836;28;20456;-84
2023/05/24 03:04:29;;;;;;;24.00;5.47;;;9.40;99.90;;;;;;5015966;28;20430;-89
2023/05/24 03:06:55;;;;;;;25.58;6.75;;;9.40;99.90;;;;;;5028352;28;20433;-85
2023/05/24 03:09:20;;;;;;;22.88;6.35;;;9.30;99.90;;;;;;5029302;28;20494;-84
2023/05/24 03:11:46;;;;;;;27.38;6.40;;;9.20;99.90;;;;;;5018980;28;20425;-87
2023/05/24 03:14:12;;;;;;;20.77;6.45;;;9.30;99.90;;;;;;5042020;28;20417;-87
2023/05/24 03:16:38;;;;;;;27.17;7.65;;;9.30;99.90;;;;;;5020278;28;20454;-82
2023/05/24 03:19:04;;;;;;;22.63;6.13;;;9.30;99.90;;;;;;5034474;28;20429;-87
2023/05/24 03:21:30;;;;;;;26.38;6.47;;;9.40;99.90;;;;;;5043322;28;20482;-79
2023/05/24 03:23:56;;;;;;;20.70;5.57;;;9.30;99.90;;;;;;5037044;28;20437;-88
2023/05/24 03:26:22;;;;;;;27.48;6.60;;;9.20;99.90;;;;;;5039336;28;20517;-83
2023/05/24 03:28:50;;;;;;;25.92;6.75;;;9.20;99.90;;;;;;5035883;28;20419;-84
2023/05/24 03:31:16;;;;;;;23.08;4.95;;;9.30;99.90;;;;;;5035286;28;20438;-86
2023/05/24 03:33:42;;;;;;;26.40;6.67;;;9.30;99.90;;;;;;5033175;28;20408;-88
2023/05/24 03:36:09;;;;;;;21.53;5.17;;;9.30;99.90;;;;;;5020553;28;20953;-83
2023/05/24 03:38:34;;;;;;;23.13;6.35;;;9.30;99.90;;;;;;5027668;28;20416;-87
2023/05/24 03:41:00;;;;;;;19.40;4.80;;;9.50;99.90;;;;;;5020820;28;20488;-85
2023/05/24 03:43:26;;;;;;;25.50;6.27;;;9.40;99.90;;;;;;5041098;28;20444;-87
2023/05/24 03:45:51;;;;;;;20.57;4.93;;;9.40;99.90;;;;;;5045814;28;20449;-84
2023/05/24 03:48:19;;;;;;;20.50;6.00;;;9.50;99.90;;;;;;5046169;28;20425;-87
2023/05/24 03:50:46;;;;;;;27.67;7.13;;;9.50;99.90;;;;;;5034563;28;20452;-80
2023/05/24 03:53:11;;;;;;;22.50;5.18;;;9.50;99.90;;;;;;5057646;28;20475;-79
2023/05/24 03:55:37;;;;;;;25.13;6.17;;;9.50;99.90;;;;;;5052341;28;20967;-82
2023/05/24 03:58:03;;;;;;;23.88;6.10;;;9.50;99.90;;;;;;5045028;28;20445;-86
2023/05/24 04:00:29;;;;;;;21.67;5.47;;;9.50;99.90;;;;;;5037969;28;20421;-81
2023/05/24 04:02:54;;;;;;;25.38;7.28;;;9.60;99.90;;;;;;5039418;28;20718;-84
2023/05/24 04:05:25;;;;;;;24.83;6.60;;;9.60;99.90;;;;;;5055647;28;20444;-91
2023/05/24 04:07:52;;;;;;;29.88;6.97;;;9.70;99.90;;;;;;5047965;28;20424;-79
2023/05/24 04:10:18;;;;;;;27.33;6.50;;;9.70;99.90;;;;;;5029176;28;20430;-94
2023/05/24 04:12:44;;;;;;;21.90;5.25;;;9.60;99.90;;;;;;5039071;28;20404;-82
2023/05/24 04:15:13;;;;;;;26.33;5.53;;;9.60;99.90;;;;;;5024936;28;20431;-82
2023/05/24 04:17:42;;;;;;;22.40;6.18;;;9.70;99.90;;;;;;5045538;28;20422;-79
2023/05/24 04:20:09;;;;;;;23.67;5.70;;;9.70;99.90;;;;;;5032490;28;20508;-87
2023/05/24 04:22:35;;;;;;;21.98;5.07;;;9.80;99.90;;;;;;5057684;28;20448;-87
2023/05/24 04:25:02;;;;;;;19.87;6.00;;;9.90;99.90;;;;;;5054694;28;20430;-88
2023/05/24 04:27:29;;;;;;;18.63;4.53;;;10.00;99.90;;;;;;5039585;28;20526;-91
2023/05/24 04:29:54;;;;;;;19.87;4.97;;;9.90;99.90;;;;;;5018185;28;20433;-88
2023/05/24 04:32:20;;;;;;;20.97;5.30;;;10.20;99.90;;;;;;5009279;28;20866;-87
2023/05/24 04:34:46;;;;;;;25.63;5.13;;;9.90;99.90;;;;;;5019856;28;20427;-87
2023/05/24 04:37:16;;;;;;;19.33;5.73;;;10.00;99.90;;;;;;5028788;28;20959;-92
2023/05/24 04:39:43;;;;;;;19.92;5.45;;;10.00;99.90;;;;;;5041096;28;20494;-79
2023/05/24 04:42:09;;;;;;;28.70;7.00;;;10.00;99.90;;;;;;5050627;28;20490;-80
2023/05/24 04:44:35;;;;;;;18.90;5.10;;;10.10;99.90;;;;;;5040892;28;20442;-81
2023/05/24 04:47:02;;;;;;;21.50;5.93;;;10.10;99.90;;;;;;5043809;28;20438;-81
2023/05/24 04:49:29;;;;;;;20.20;4.72;;;10.10;99.90;;;;;;5045254;28;20432;-82
2023/05/24 04:51:55;;;;;;;24.58;5.57;;;10.20;99.90;;;;;;5040650;28;20427;-88
2023/05/24 04:54:21;;;;;;;19.13;4.90;;;10.40;99.90;;;;;;5032217;28;20411;-86
2023/05/24 04:56:47;;;;;;;18.80;5.82;;;10.30;99.90;;;;;;5037370;28;20486;-92
2023/05/24 04:59:13;;;;;;;18.48;5.20;;;10.30;99.90;;;;;;5034653;28;20516;-88
2023/05/24 05:01:39;;;;;;;22.70;4.95;;;10.40;99.90;;;;;;5019440;28;20433;-88
2023/05/24 05:04:04;;;;;;;19.05;5.25;;;10.40;99.90;;;;;;5039515;28;20427;-88
2023/05/24 05:06:33;;;;;;;18.90;4.78;;;10.50;99.90;;;;;;5038034;28;20447;-88
2023/05/24 05:08:59;;;;;;;22.52;6.03;;;10.60;99.90;;;;;;5039029;28;20433;-89
2023/05/24 05:11:26;;;;;;;21.88;6.78;;;10.70;99.90;;;;;;5034160;28;20450;-86
2023/05/24 05:13:53;;;;;;;23.45;5.03;;;10.70;99.90;;;;;;5001036;28;20431;-85
2023/05/24 05:16:19;;;;;;;19.35;4.65;;;10.60;99.90;;;;;;5036108;28;20426;-88
2023/05/24 05:18:45;;;;;;;25.48;5.35;;;10.70;99.90;;;;;;5040617;28;20431;-87
2023/05/24 05:21:10;;;;;;;21.40;5.05;;;10.60;99.90;;;;;;5030968;28;20454;-84
2023/05/24 05:23:38;;;;;;;20.20;4.88;;;10.70;99.90;;;;;;5028145;28;20437;-90
2023/05/24 05:26:07;;;;;;;24.33;5.88;;;10.60;99.90;;;;;;5032704;28;20459;-89
2023/05/24 05:28:32;;;;;;;21.85;5.22;;;10.70;99.90;;;;;;5030667;28;20450;-89
2023/05/24 05:30:58;;;;;;;20.88;6.07;;;10.60;99.90;;;;;;5032811;28;20459;-84
2023/05/24 05:33:24;;;;;;;20.13;5.68;;;10.60;99.90;;;;;;5033291;28;20999;-80
2023/05/24 05:35:50;;;;;;;23.95;4.93;;;10.40;99.90;;;;;;5035297;28;20428;-83
2023/05/24 05:38:16;;;;;;;15.13;4.53;;;10.60;99.90;;;;;;5013349;28;20777;-91
2023/05/24 05:40:41;;;;;;;21.92;6.05;;;10.70;99.90;;;;;;5034816;28;20483;-86
2023/05/24 05:43:08;;;;;;;22.37;5.50;;;11.00;99.90;;;;;;5037389;28;21034;-90
2023/05/24 05:45:33;;;;;;;24.58;5.70;;;10.70;99.90;;;;;;5041741;28;20786;-81
2023/05/24 05:47:59;;;;;;;21.43;5.77;;;10.70;99.90;;;;;;5032796;28;20445;-90
2023/05/24 05:50:25;;;;;;;21.67;5.90;;;10.80;99.90;;;;;;5032098;28;20431;-88
2023/05/24 05:52:51;;;;;;;28.90;6.80;;;10.80;99.90;;;;;;5028200;28;20509;-83
2023/05/24 05:55:16;;;;;;;22.75;5.57;;;10.80;99.90;;;;;;5044963;28;20474;-90
2023/05/24 05:57:42;;;;;;;20.13;4.95;;;10.80;99.90;;;;;;5013420;28;20421;-81
2023/05/24 06:00:08;;;;;;;17.55;4.90;;;10.90;99.90;;;;;;5045769;28;20428;-91
2023/05/24 06:02:34;;;;;;;26.85;5.72;;;11.00;99.90;;;;;;5023898;28;20509;-90
2023/05/24 06:05:00;;;;;;;26.65;5.68;;;10.90;99.90;;;;;;5033821;28;20601;-88
2023/05/24 06:07:26;;;;;;;27.27;5.60;;;10.90;99.90;;;;;;5044000;28;20402;-77
2023/05/24 06:09:51;;;;;;;27.07;6.80;;;11.00;99.90;;;;;;5031494;28;20504;-78
2023/05/24 06:12:17;;;;;;;24.13;6.10;;;11.00;99.90;;;;;;5051223;28;20415;-77
2023/05/24 06:14:43;;;;;;;22.70;6.30;;;11.10;99.90;;;;;;5061370;28;20429;-90
2023/05/24 06:17:08;;;;;;;28.02;7.00;;;11.00;99.90;;;;;;5036702;28;20435;-78
2023/05/24 06:19:34;;;;;;;24.40;6.22;;;11.10;99.90;;;;;;5039616;28;20850;-78
2023/05/24 06:22:00;;;;;;;23.80;5.63;;;11.30;99.90;;;;;;5033126;28;20422;-79
2023/05/24 06:24:27;;;;;;;23.95;5.82;;;11.20;99.90;;;;;;5031181;28;20754;-87
2023/05/24 06:26:53;;;;;;;22.60;6.70;;;11.20;99.90;;;;;;5028242;28;20434;-80
2023/05/24 06:29:20;;;;;;;21.73;5.65;;;11.30;99.90;;;;;;5026295;28;20473;-91
2023/05/24 06:31:47;;;;;;;24.27;5.60;;;11.20;99.90;;;;;;5032053;28;20438;-86
2023/05/24 06:34:16;;;;;;;21.85;5.45;;;11.30;99.90;;;;;;5029898;28;20451;-91
2023/05/24 06:36:42;;;;;;;17.90;6.03;;;11.30;99.90;;;;;;5010374;28;20438;-89
2023/05/24 06:39:09;;;;;;;19.23;4.82;;;11.30;99.90;;;;;;5026659;28;20516;-91
2023/05/24 06:41:35;;;;;;;23.50;6.50;;;11.40;99.90;;;;;;5028461;28;20520;-89
2023/05/24 06:44:01;;;;;;;21.37;6.30;;;11.50;99.90;;;;;;5034317;28;20459;-91
2023/05/24 06:46:26;;;;;;;16.37;4.63;;;11.40;99.90;;;;;;5030675;28;20503;-84
2023/05/24 06:48:52;;;;;;;15.57;5.00;;;11.70;99.90;;;;;;5029291;28;20419;-90
2023/05/24 06:51:18;;;;;;;19.87;5.67;;;11.80;99.90;;;;;;5027762;28;20411;-84
2023/05/24 06:53:43;;;;;;;18.17;4.65;;;11.90;99.90;;;;;;5029861;28;20445;-81
2023/05/24 06:56:09;;;;;;;20.63;6.18;;;12.00;99.90;;;;;;5030039;28;20794;-86
2023/05/24 06:58:35;;;;;;;15.05;3.92;;;12.20;99.90;;;;;;5031883;28;20509;-81
2023/05/24 07:01:03;;;;;;;16.92;4.50;;;12.10;99.90;;;;;;5044488;28;20808;-83
2023/05/24 07:03:30;;;;;;;14.30;4.13;;;12.10;99.90;;;;;;5038247;28;20433;-89
2023/05/24 07:05:55;;;;;;;14.35;3.95;;;12.10;99.90;;;;;;5024713;28;20466;-82
2023/05/24 07:08:21;;;;;;;22.45;4.90;;;12.60;99.90;;;;;;5027372;28;20979;-90
2023/05/24 07:10:47;;;;;;;20.20;5.03;;;12.70;99.90;;;;;;5043084;28;20533;-91
2023/05/24 07:13:14;;;;;;;19.40;5.00;;;12.60;99.90;;;;;;5012474;28;20439;-89
2023/05/24 07:15:40;;;;;;;17.53;4.70;;;12.70;99.90;;;;;;5048264;28;20439;-87
2023/05/24 07:18:06;;;;;;;19.45;4.05;;;13.80;99.90;;;;;;5028795;28;20820;-90
2023/05/24 07:20:32;;;;;;;19.07;4.70;;;13.80;99.90;;;;;;5018438;28;20512;-91
2023/05/24 07:23:00;;;;;;;20.37;4.13;;;13.40;99.90;;;;;;5014963;28;20419;-90
2023/05/24 07:25:25;;;;;;;13.88;3.42;;;13.20;99.90;;;;;;5039899;28;20448;-87
2023/05/24 07:27:51;;;;;;;14.50;4.38;;;12.90;99.90;;;;;;5034797;28;20427;-92
2023/05/24 07:30:17;;;;;;;21.17;4.90;;;12.80;99.90;;;;;;5034607;28;20438;-88
2023/05/24 07:32:43;;;;;;;17.25;4.82;;;13.00;99.90;;;;;;5040717;28;20422;-88
2023/05/24 07:35:13;;;;;;;14.93;4.65;;;13.30;99.90;;;;;;5031157;28;20831;-80
2023/05/24 07:37:39;;;;;;;16.33;4.73;;;13.30;99.90;;;;;;5049192;28;20482;-79
2023/05/24 07:40:09;;;;;;;17.58;4.13;;;13.40;99.90;;;;;;5050898;28;20498;-89
2023/05/24 07:42:39;;;;;;;14.20;3.78;;;12.70;99.90;;;;;;5050967;28;20448;-81
2023/05/24 07:45:07;;;;;;;17.02;3.80;;;12.70;99.90;;;;;;5040795;28;20435;-82
2023/05/24 07:47:33;;;;;;;13.85;4.43;;;12.60;99.90;;;;;;5020289;28;20433;-81
2023/05/24 07:49:59;;;;;;;18.20;5.05;;;12.80;99.90;;;;;;5022374;28;20836;-82
2023/05/24 07:52:34;;;;;;;14.80;4.00;;;12.70;99.90;;;;;;5039973;28;20505;-82
2023/05/24 07:55:00;;;;;;;15.80;5.27;;;12.70;99.90;;;;;;5041339;28;20430;-90
2023/05/24 07:57:26;;;;;;;18.48;5.00;;;12.50;99.90;;;;;;5040925;28;20417;-85
2023/05/24 07:59:52;;;;;;;15.63;4.38;;;12.80;99.90;;;;;;5040651;28;20774;-88
2023/05/24 08:02:17;;;;;;;16.02;4.50;;;12.70;99.90;;;;;;5033950;28;20427;-80
2023/05/24 08:04:43;;;;;;;12.27;4.23;;;12.30;99.90;;;;;;5031775;28;20430;-85
2023/05/24 08:07:09;;;;;;;15.30;3.67;;;12.40;99.90;;;;;;5034552;28;20495;-89
2023/05/24 08:09:37;;;;;;;14.57;4.83;;;12.60;99.90;;;;;;5038359;28;20451;-89
2023/05/24 08:12:04;;;;;;;14.50;4.38;;;12.60;99.90;;;;;;5045144;28;20438;-75
2023/05/24 08:14:30;;;;;;;13.18;4.30;;;12.40;99.90;;;;;;5034307;28;20437;-84
2023/05/24 08:16:55;;;;;;;15.20;3.70;;;12.60;99.90;;;;;;5036539;28;20510;-80
2023/05/24 08:19:22;;;;;;;15.30;5.00;;;12.60;99.90;;;;;;5037553;28;20435;-84
2023/05/24 08:21:48;;;;;;;11.80;3.78;;;12.80;99.90;;;;;;5037705;28;20511;-77
2023/05/24 08:24:13;;;;;;;15.13;4.13;;;12.80;99.90;;;;;;5034802;28;20498;-86
2023/05/24 08:26:39;;;;;;;11.30;3.33;;;12.80;99.90;;;;;;5039494;28;20426;-77
2023/05/24 08:29:05;;;;;;;14.40;4.07;;;12.80;99.90;;;;;;5044263;28;20450;-81
2023/05/24 08:31:33;;;;;;;14.00;4.75;;;13.00;99.90;;;;;;5039845;28;20455;-88
2023/05/24 08:34:00;;;;;;;12.07;3.70;;;12.70;99.90;;;;;;5032107;28;20517;-83
2023/05/24 08:36:25;;;;;;;14.73;5.05;;;12.80;99.90;;;;;;5034451;28;21091;-87
2023/05/24 08:38:51;;;;;;;12.75;3.55;;;12.80;99.90;;;;;;5033151;28;20455;-82
2023/05/24 08:41:17;;;;;;;15.77;4.20;;;12.80;99.90;;;;;;5034134;28;20785;-86
2023/05/24 08:43:43;;;;;;;15.82;4.78;;;12.80;99.90;;;;;;5032186;28;20714;-79
2023/05/24 08:46:11;;;;;;;13.52;4.50;;;12.70;99.90;;;;;;5037249;28;20438;-83
2023/05/24 08:48:47;;;;;;;18.35;5.07;;;12.80;99.90;;;;;;5029934;28;20459;-87
2023/05/24 08:51:16;;;;;;;12.07;3.50;;;12.60;99.90;;;;;;5041747;28;20432;-81
2023/05/24 08:53:47;;;;;;;16.65;4.45;;;12.70;99.90;;;;;;5045159;28;20422;-76
2023/05/24 08:56:16;;;;;;;17.48;4.35;;;12.70;99.90;;;;;;5033634;28;20427;-87
2023/05/24 08:58:42;;;;;;;15.63;4.50;;;13.00;99.90;;;;;;5026057;28;20936;-78
2023/05/24 09:01:10;;;;;;;12.07;3.60;;;12.90;99.90;;;;;;5024516;28;20513;-81
2023/05/24 09:03:36;;;;;;;13.20;3.83;;;12.70;99.90;;;;;;5038402;28;20421;-85
2023/05/24 09:06:03;;;;;;;11.13;3.38;;;12.80;99.90;;;;;;5031752;28;20439;-80
2023/05/24 09:08:32;;;;;;;11.55;4.45;;;12.80;99.90;;;;;;5027377;28;20481;-85
2023/05/24 09:10:58;;;;;;;15.15;3.50;;;12.70;99.90;;;;;;5036364;28;20914;-85
2023/05/24 09:13:25;;;;;;;12.63;3.83;;;12.80;99.90;;;;;;5044637;28;20450;-87
2023/05/24 09:15:50;;;;;;;12.82;3.42;;;12.80;99.90;;;;;;5029363;28;20431;-84
2023/05/24 09:18:16;;;;;;;8.07;2.70;;;12.70;99.90;;;;;;5031235;28;20974;-84
2023/05/24 09:20:42;;;;;;;9.70;2.90;;;12.80;99.90;;;;;;5031913;28;20438;-85
2023/05/24 09:23:08;;;;;;;11.40;3.77;;;12.70;99.90;;;;;;5034035;28;20434;-87
2023/05/24 09:25:34;;;;;;;8.77;3.30;;;12.70;99.90;;;;;;5042928;28;20437;-80
2023/05/24 09:28:06;;;;;;;9.10;3.43;;;12.70;99.90;;;;;;5043659;28;20483;-84
2023/05/24 09:30:32;;;;;;;11.10;4.15;;;12.70;99.90;;;;;;5045509;28;20440;-77
2023/05/24 09:32:59;;;;;;;9.73;2.90;;;12.70;99.90;;;;;;5044782;28;20423;-77
2023/05/24 09:35:26;;;;;;;10.87;4.17;;;12.80;99.90;;;;;;5050035;28;20750;-80
2023/05/24 09:37:56;;;;;;;12.13;3.60;;;13.00;99.90;;;;;;5031096;28;20426;-78
2023/05/24 09:40:22;;;;;;;11.52;3.50;;;13.20;99.90;;;;;;5043234;28;20412;-79
2023/05/24 09:43:00;;;;;;;9.18;3.08;;;12.90;99.90;;;;;;5050462;28;20442;-76
2023/05/24 09:45:27;;;;;;;13.40;3.72;;;13.10;99.90;;;;;;5051445;28;20461;-77
2023/05/24 09:47:53;;;;;;;8.43;3.40;;;13.40;99.90;;;;;;5053164;28;20427;-86
2023/05/24 09:50:19;;;;;;;7.83;2.80;;;13.50;99.90;;;;;;5035913;28;20458;-82
2023/05/24 09:52:44;;;;;;;9.70;3.17;;;13.40;99.90;;;;;;5034985;28;20419;-83
2023/05/24 09:55:15;;;;;;;8.68;3.15;;;13.60;99.90;;;;;;5030121;28;20423;-84
2023/05/24 09:57:43;;;;;;;9.80;3.13;;;13.70;99.90;;;;;;5038392;28;20526;-86
2023/05/24 10:00:15;;;;;;;12.82;3.97;;;13.70;99.90;;;;;;5035311;28;20449;-84
2023/05/24 10:02:42;;;;;;;12.02;3.90;;;13.70;99.90;;;;;;5030746;28;20419;-87
2023/05/24 10:05:10;;;;;;;11.47;3.60;;;14.30;99.90;;;;;;5029075;28;20439;-85
2023/05/24 10:07:37;;;;;;;15.52;4.60;;;14.40;99.90;;;;;;5030414;28;20431;-87
2023/05/24 10:10:04;;;;;;;9.90;3.28;;;14.40;99.90;;;;;;5010538;28;20466;-80
2023/05/24 10:12:30;;;;;;;11.75;3.58;;;14.30;99.90;;;;;;5041536;28;20425;-85
2023/05/24 10:14:57;;;;;;;9.90;3.58;;;14.60;99.90;;;;;;5048161;28;20411;-86
2023/05/24 10:17:26;;;;;;;13.70;2.60;;;14.30;99.90;;;;;;5018686;28;20046;-77
2023/05/24 10:19:52;;;;;;;12.80;3.78;;;14.40;99.90;;;;;;5023827;28;20377;-86
2023/05/24 10:22:23;;;;;;;11.32;4.45;;;14.80;99.90;;;;;;5026667;28;20123;-81
2023/05/24 10:24:57;;;;;;;18.55;4.75;;;14.40;99.90;;;;;;5017794;28;20042;-83
2023/05/24 10:27:29;;;;;;;12.55;4.10;;;14.10;99.90;;;;;;5029143;28;20076;-85
2023/05/24 10:30:12;;;;;;;18.17;5.05;;;14.10;99.90;;;;;;5029232;28;20055;-85
2023/05/24 10:32:38;;;;;;;8.25;2.65;;;14.10;99.90;;;;;;5050307;28;20132;-83
2023/05/24 10:35:05;;;;;;;9.00;2.85;;;13.70;99.90;;;;;;5033878;28;20033;-86
2023/05/24 10:37:32;;;;;;;11.15;2.80;;;14.00;99.90;;;;;;5037148;28;20105;-79
2023/05/24 10:39:59;;;;;;;6.40;2.05;;;14.30;99.90;;;;;;5038296;28;20033;-76
2023/05/24 10:42:25;;;;;;;13.98;4.85;;;14.20;99.90;;;;;;5042833;28;20041;-86
2023/05/24 10:44:51;;;;;;;12.55;2.85;;;14.20;99.90;;;;;;5048792;28;20540;-83
2023/05/24 10:47:19;;;;;;;11.68;3.28;;;14.10;99.90;;;;;;5027787;28;20105;-82
2023/05/24 10:49:57;;;;;;;5.43;2.03;;;14.00;99.90;;;;;;5027759;28;20123;-84
2023/05/24 10:52:34;;;;;;;8.65;1.83;;;14.20;99.90;;;;;;5023228;28;20107;-81
2023/05/24 10:55:03;;;;;;;7.25;2.53;;;14.50;99.90;;;;;;5029458;28;20430;-84
2023/05/24 10:57:29;;;;;;;6.60;1.90;;;14.50;99.90;;;;;;5020735;28;20052;-85
2023/05/24 10:59:56;;;;;;;10.05;3.35;;;14.40;99.90;;;;;;5015375;28;20049;-84
2023/05/24 11:02:21;;;;;;;14.50;3.65;;;14.70;99.90;;;;;;5047020;28;20056;-82
2023/05/24 11:04:50;;;;;;;12.90;2.78;;;14.40;99.90;;;;;;5048415;28;20036;-81
2023/05/24 11:07:18;;;;;;;13.15;3.20;;;14.10;99.90;;;;;;5030328;28;20128;-81
2023/05/24 11:09:51;;;;;;;10.85;3.65;;;14.60;99.90;;;;;;5027755;28;20111;-83
2023/05/24 11:12:19;;;;;;;11.32;2.65;;;14.60;99.90;;;;;;5027842;28;20427;-84
2023/05/24 11:14:50;;;;;;;8.93;4.63;;;14.70;99.90;;;;;;5028232;28;20052;-86
2023/05/24 11:17:21;;;;;;;12.38;3.03;;;14.50;99.90;;;;;;5030169;28;20044;-85
2023/05/24 11:19:52;;;;;;;5.88;2.50;;;14.50;99.90;;;;;;5035499;28;20435;-86
2023/05/24 11:22:25;;;;;;;6.45;2.47;;;14.70;99.90;;;;;;5045566;28;20120;-79
2023/05/24 11:24:51;;;;;;;7.85;2.22;;;14.50;99.90;;;;;;5040352;28;20612;-82
2023/05/24 11:27:17;;;;;;;14.68;3.53;;;14.50;99.90;;;;;;5026905;28;20041;-87
2023/05/24 11:29:45;;;;;;;11.43;3.33;;;14.20;99.90;;;;;;5020871;28;20033;-85
2023/05/24 11:32:19;;;;;;;8.13;2.38;;;14.40;99.90;;;;;;5037527;28;20107;-82
2023/05/24 11:34:48;;;;;;;7.50;3.13;;;14.60;99.90;;;;;;5012701;28;20044;-86
2023/05/24 11:37:14;;;;;;;9.80;2.63;;;14.70;99.90;;;;;;5027986;28;20480;-83
2023/05/24 11:39:40;;;;;;;8.98;2.70;;;14.50;99.90;;;;;;5030142;28;20042;-85
2023/05/24 11:42:07;;;;;;;11.82;2.95;;;14.90;99.90;;;;;;5014596;28;20533;-82
2023/05/24 11:44:36;;;;;;;13.00;3.30;;;15.00;99.90;;;;;;5033249;28;20108;-81
2023/05/24 11:47:05;;;;;;;13.17;2.83;;;14.90;99.90;;;;;;5026391;28;20041;-85
2023/05/24 11:49:31;;;;;;;15.02;3.95;;;14.90;99.90;;;;;;5047457;28;20487;-87
2023/05/24 11:51:57;;;;;;;13.27;3.75;;;15.00;99.90;;;;;;5023397;28;20056;-85
2023/05/24 11:54:27;;;;;;;7.22;3.17;;;14.80;99.90;;;;;;5024114;28;20134;-80
2023/05/24 11:56:54;;;;;;;8.85;2.63;;;15.00;99.90;;;;;;5030541;28;20451;-80
2023/05/24 11:59:24;;;;;;;10.23;2.42;;;15.60;99.90;;;;;;5034399;28;20073;-84
2023/05/24 12:02:03;;;;;;;;;;;15.50;99.90;;;;;;5032550;28;20049;-86
2023/05/24 12:04:30;;;;;;;10.50;2.55;;;15.20;99.90;;;;;;5046531;28;19928;-79
2023/05/24 12:06:56;;;;;;;9.27;2.03;;;14.80;99.90;;;;;;5035476;28;20434;-83
2023/05/24 12:09:22;;;;;;;10.50;3.85;;;15.10;99.90;;;;;;5043575;28;20427;-83
2023/05/24 12:11:50;;;;;;;10.05;3.10;;;15.20;99.90;;;;;;5040313;28;20041;-86
2023/05/24 12:14:17;;;;;;;9.73;2.53;;;15.40;99.90;;;;;;5021205;28;20096;-82
2023/05/24 12:16:44;;;;;;;6.70;2.33;;;15.00;99.90;;;;;;5033723;28;20041;-87
2023/05/24 12:19:19;;;;;;;12.23;2.53;;;14.90;99.90;;;;;;5044700;28;20052;-86
2023/05/24 12:21:47;;;;;;;10.02;3.85;;;15.30;99.90;;;;;;5047050;28;20442;-83
2023/05/24 12:24:18;;;;;;;8.35;3.05;;;15.00;99.90;;;;;;5035724;28;20106;-83
2023/05/24 12:26:47;;;;;;;9.70;3.72;;;14.90;99.90;;;;;;5034889;28;20543;-81
2023/05/24 12:29:13;;;;;;;10.90;3.25;;;14.60;99.90;;;;;;5036093;28;20036;-78
2023/05/24 12:31:40;;;;;;;6.53;2.65;;;14.70;99.90;;;;;;5040839;28;20096;-84
2023/05/24 12:34:14;;;;;;;9.15;2.35;;;14.60;99.90;;;;;;5041081;28;20037;-82
2023/05/24 12:36:41;;;;;;;13.18;2.53;;;14.60;99.90;;;;;;5032328;28;20041;-85
2023/05/24 12:39:31;;;;;;;7.22;2.95;;;14.40;99.90;;;;;;5021978;28;20050;-85
2023/05/24 12:41:57;;;;;;;11.82;3.60;;;14.60;99.90;;;;;;5032579;28;20611;-87
2023/05/24 12:44:24;;;;;;;9.88;2.78;;;14.60;99.90;;;;;;5045232;28;20475;-85